Station Historical Data
Daily Summary for March 31, 2012 Units:  Both    English   Metric
« Previous Day
Next Day »
Daily Weekly Monthly Yearly Custom
  High: Low: Average:
Temperature: 77.4 °F /  25.2 °C 59.3 °F /  15.2 °C 65.3 °F /  18.5 °C
Dew Point: 67.7 °F /  19.8 °C 54.4 °F /  12.4 °C 61.2 °F /  16.2 °C
Humidity: 96% 62% 88%
Wind Speed: 15.0mph /  24.1km/h - 2.5mph /  4km/h
Wind Gust: 18.0mph /  29km/h - -
Wind- - South
Pressure: 29.86 in /  1011.1 hPa 29.75 in /  1007.3 hPa -
Precipitation: 0.01 in /  0.25 mm    
Historical Graphs
 
 
Tabular Data for March 31, 2012
Time Temperature Dew Point Pressure Wind Wind Speed Wind Gust Humidity Rainfall Rate (Hourly) Conditions
00:00 62.7 °F /  17.1 °C 61.0 °F /  16.1 °C 29.83in /  1010hPa South 1.0mph /  1.6km/h 2.0mph /  3.2km/h 94% 0.00in /  0mm
00:01 62.6 °F /  17 °C 60.8 °F /  16 °C 29.83in /  1010hPa Calm   2.0mph /  3.2km/h 94% 0.00in /  0mm
00:02 62.7 °F /  17.1 °C 61.0 °F /  16.1 °C 29.83in /  1010hPa Calm   2.0mph /  3.2km/h 94% 0.00in /  0mm
00:07 62.6 °F /  17 °C 60.8 °F /  16 °C 29.83in /  1010hPa SSE 1.0mph /  1.6km/h 2.0mph /  3.2km/h 94% 0.00in /  0mm
00:12 62.7 °F /  17.1 °C 61.0 °F /  16.1 °C 29.83in /  1010hPa South 2.0mph /  3.2km/h 3.0mph /  4.8km/h 94% 0.00in /  0mm
00:17 62.8 °F /  17.1 °C 61.0 °F /  16.1 °C 29.83in /  1010hPa SSE 2.0mph /  3.2km/h 3.0mph /  4.8km/h 94% 0.00in /  0mm
00:22 62.8 °F /  17.1 °C 61.0 °F /  16.1 °C 29.83in /  1010hPa SSE 1.0mph /  1.6km/h 3.0mph /  4.8km/h 94% 0.00in /  0mm
00:27 62.8 °F /  17.1 °C 61.0 °F /  16.1 °C 29.83in /  1010hPa South 1.0mph /  1.6km/h 2.0mph /  3.2km/h 94% 0.00in /  0mm
00:32 62.6 °F /  17 °C 60.8 °F /  16 °C 29.83in /  1010hPa SSE 1.0mph /  1.6km/h 2.0mph /  3.2km/h 94% 0.00in /  0mm
00:37 62.4 °F /  16.9 °C 60.7 °F /  15.9 °C 29.83in /  1010hPa South 1.0mph /  1.6km/h 2.0mph /  3.2km/h 94% 0.00in /  0mm
00:42 62.4 °F /  16.9 °C 60.7 °F /  15.9 °C 29.83in /  1010hPa SW 1.0mph /  1.6km/h 2.0mph /  3.2km/h 94% 0.00in /  0mm
00:48 62.4 °F /  16.9 °C 60.7 °F /  15.9 °C 29.83in /  1010hPa South 1.0mph /  1.6km/h 2.0mph /  3.2km/h 94% 0.00in /  0mm
00:53 62.2 °F /  16.8 °C 60.5 °F /  15.8 °C 29.83in /  1010hPa SW 1.0mph /  1.6km/h 1.0mph /  1.6km/h 94% 0.00in /  0mm
00:58 62.1 °F /  16.7 °C 60.4 °F /  15.8 °C 29.83in /  1010hPa SW 1.0mph /  1.6km/h 3.0mph /  4.8km/h 94% 0.00in /  0mm
01:03 62.1 °F /  16.7 °C 60.7 °F /  15.9 °C 29.83in /  1010hPa SW 1.0mph /  1.6km/h 2.0mph /  3.2km/h 95% 0.00in /  0mm
01:08 61.9 °F /  16.6 °C 60.5 °F /  15.8 °C 29.83in /  1010hPa South 1.0mph /  1.6km/h 2.0mph /  3.2km/h 95% 0.00in /  0mm
01:13 61.9 °F /  16.6 °C 60.5 °F /  15.8 °C 29.83in /  1010hPa South 1.0mph /  1.6km/h 3.0mph /  4.8km/h 95% 0.00in /  0mm
01:18 61.8 °F /  16.6 °C 60.4 °F /  15.8 °C 29.83in /  1010hPa Calm   2.0mph /  3.2km/h 95% 0.00in /  0mm
01:23 61.7 °F /  16.5 °C 60.3 °F /  15.7 °C 29.83in /  1010hPa SSE 1.0mph /  1.6km/h 1.0mph /  1.6km/h 95% 0.00in /  0mm
01:28 61.8 °F /  16.6 °C 60.4 °F /  15.8 °C 29.83in /  1010hPa South 2.0mph /  3.2km/h 2.0mph /  3.2km/h 95% 0.00in /  0mm
01:33 62.0 °F /  16.7 °C 60.6 °F /  15.9 °C 29.82in /  1009.7hPa South 1.0mph /  1.6km/h 2.0mph /  3.2km/h 95% 0.00in /  0mm
01:38 62.0 °F /  16.7 °C 60.6 °F /  15.9 °C 29.83in /  1010hPa SSW 4.0mph /  6.4km/h 4.0mph /  6.4km/h 95% 0.00in /  0mm
01:43 62.0 °F /  16.7 °C 60.6 °F /  15.9 °C 29.83in /  1010hPa WSW 1.0mph /  1.6km/h 3.0mph /  4.8km/h 95% 0.00in /  0mm
01:48 61.8 °F /  16.6 °C 60.4 °F /  15.8 °C 29.83in /  1010hPa WSW 1.0mph /  1.6km/h 2.0mph /  3.2km/h 95% 0.00in /  0mm
01:53 61.8 °F /  16.6 °C 60.4 °F /  15.8 °C 29.83in /  1010hPa WSW 2.0mph /  3.2km/h 2.0mph /  3.2km/h 95% 0.00in /  0mm
01:58 61.6 °F /  16.4 °C 60.2 °F /  15.7 °C 29.83in /  1010hPa West 1.0mph /  1.6km/h 2.0mph /  3.2km/h 95% 0.00in /  0mm
02:03 61.7 °F /  16.5 °C 60.3 °F /  15.7 °C 29.84in /  1010.4hPa SW 3.0mph /  4.8km/h 3.0mph /  4.8km/h 95% 0.00in /  0mm
02:08 62.0 °F /  16.7 °C 60.6 °F /  15.9 °C 29.84in /  1010.4hPa WSW 1.0mph /  1.6km/h 4.0mph /  6.4km/h 95% 0.00in /  0mm
02:13 62.1 °F /  16.7 °C 60.7 °F /  15.9 °C 29.84in /  1010.4hPa WSW 1.0mph /  1.6km/h 2.0mph /  3.2km/h 95% 0.00in /  0mm
02:18 62.2 °F /  16.8 °C 60.8 °F /  16 °C 29.83in /  1010hPa SW 2.0mph /  3.2km/h 2.0mph /  3.2km/h 95% 0.00in /  0mm
02:23 62.3 °F /  16.8 °C 60.8 °F /  16 °C 29.83in /  1010hPa South 1.0mph /  1.6km/h 3.0mph /  4.8km/h 95% 0.00in /  0mm
02:28 62.3 °F /  16.8 °C 60.8 °F /  16 °C 29.83in /  1010hPa SW 2.0mph /  3.2km/h 3.0mph /  4.8km/h 95% 0.00in /  0mm
02:33 62.4 °F /  16.9 °C 61.0 °F /  16.1 °C 29.83in /  1010hPa SW 2.0mph /  3.2km/h 5.0mph /  8km/h 95% 0.00in /  0mm
02:38 62.4 °F /  16.9 °C 61.0 °F /  16.1 °C 29.83in /  1010hPa South 2.0mph /  3.2km/h 3.0mph /  4.8km/h 95% 0.00in /  0mm
02:43 62.4 °F /  16.9 °C 61.0 °F /  16.1 °C 29.83in /  1010hPa WSW 2.0mph /  3.2km/h 4.0mph /  6.4km/h 95% 0.00in /  0mm
02:48 62.4 °F /  16.9 °C 61.0 °F /  16.1 °C 29.83in /  1010hPa WSW 5.0mph /  8km/h 5.0mph /  8km/h 95% 0.00in /  0mm
02:53 62.4 °F /  16.9 °C 61.0 °F /  16.1 °C 29.83in /  1010hPa SSW 3.0mph /  4.8km/h 4.0mph /  6.4km/h 95% 0.00in /  0mm
02:58 62.2 °F /  16.8 °C 60.8 °F /  16 °C 29.83in /  1010hPa SW 3.0mph /  4.8km/h 6.0mph /  9.7km/h 95% 0.00in /  0mm
03:03 62.1 °F /  16.7 °C 60.7 °F /  15.9 °C 29.83in /  1010hPa SW 3.0mph /  4.8km/h 5.0mph /  8km/h 95% 0.00in /  0mm
03:08 62.1 °F /  16.7 °C 60.7 °F /  15.9 °C 29.82in /  1009.7hPa SW 1.0mph /  1.6km/h 3.0mph /  4.8km/h 95% 0.00in /  0mm
03:13 62.0 °F /  16.7 °C 60.6 °F /  15.9 °C 29.82in /  1009.7hPa SSW 3.0mph /  4.8km/h 4.0mph /  6.4km/h 95% 0.00in /  0mm
03:18 61.9 °F /  16.6 °C 60.5 °F /  15.8 °C 29.82in /  1009.7hPa SSW 5.0mph /  8km/h 5.0mph /  8km/h 95% 0.00in /  0mm
03:23 61.8 °F /  16.6 °C 60.4 °F /  15.8 °C 29.82in /  1009.7hPa SW 5.0mph /  8km/h 6.0mph /  9.7km/h 95% 0.00in /  0mm
03:28 61.8 °F /  16.6 °C 60.4 °F /  15.8 °C 29.82in /  1009.7hPa WSW 2.0mph /  3.2km/h 4.0mph /  6.4km/h 95% 0.00in /  0mm
03:33 61.8 °F /  16.6 °C 60.4 °F /  15.8 °C 29.82in /  1009.7hPa SW 2.0mph /  3.2km/h 4.0mph /  6.4km/h 95% 0.00in /  0mm
03:38 61.7 °F /  16.5 °C 60.3 °F /  15.7 °C 29.82in /  1009.7hPa SW 2.0mph /  3.2km/h 3.0mph /  4.8km/h 95% 0.00in /  0mm
03:43 61.7 °F /  16.5 °C 60.3 °F /  15.7 °C 29.82in /  1009.7hPa WSW 1.0mph /  1.6km/h 2.0mph /  3.2km/h 95% 0.00in /  0mm
03:48 61.6 °F /  16.4 °C 60.2 °F /  15.7 °C 29.82in /  1009.7hPa SW 3.0mph /  4.8km/h 4.0mph /  6.4km/h 95% 0.00in /  0mm
03:53 61.5 °F /  16.4 °C 60.1 °F /  15.6 °C 29.82in /  1009.7hPa SW 2.0mph /  3.2km/h 5.0mph /  8km/h 95% 0.00in /  0mm
03:58 61.5 °F /  16.4 °C 60.1 °F /  15.6 °C 29.82in /  1009.7hPa WSW 4.0mph /  6.4km/h 5.0mph /  8km/h 95% 0.00in /  0mm
04:04 61.5 °F /  16.4 °C 60.1 °F /  15.6 °C 29.82in /  1009.7hPa SW 1.0mph /  1.6km/h 4.0mph /  6.4km/h 95% 0.00in /  0mm
04:09 61.5 °F /  16.4 °C 60.1 °F /  15.6 °C 29.82in /  1009.7hPa SW 3.0mph /  4.8km/h 5.0mph /  8km/h 95% 0.00in /  0mm
04:14 61.4 °F /  16.3 °C 60.0 °F /  15.6 °C 29.82in /  1009.7hPa SW 4.0mph /  6.4km/h 5.0mph /  8km/h 95% 0.00in /  0mm
04:19 61.4 °F /  16.3 °C 60.0 °F /  15.6 °C 29.82in /  1009.7hPa SW 3.0mph /  4.8km/h 4.0mph /  6.4km/h 95% 0.00in /  0mm
04:24 61.4 °F /  16.3 °C 60.0 °F /  15.6 °C 29.82in /  1009.7hPa SW 3.0mph /  4.8km/h 6.0mph /  9.7km/h 95% 0.00in /  0mm
04:29 61.4 °F /  16.3 °C 60.0 °F /  15.6 °C 29.82in /  1009.7hPa SW 2.0mph /  3.2km/h 5.0mph /  8km/h 95% 0.00in /  0mm
04:34 61.3 °F /  16.3 °C 59.9 °F /  15.5 °C 29.82in /  1009.7hPa SSW 3.0mph /  4.8km/h 5.0mph /  8km/h 95% 0.00in /  0mm
04:39 61.3 °F /  16.3 °C 59.9 °F /  15.5 °C 29.83in /  1010hPa WSW 2.0mph /  3.2km/h 5.0mph /  8km/h 95% 0.00in /  0mm
04:44 61.3 °F /  16.3 °C 59.9 °F /  15.5 °C 29.83in /  1010hPa WSW 3.0mph /  4.8km/h 4.0mph /  6.4km/h 95% 0.00in /  0mm
04:49 61.3 °F /  16.3 °C 59.9 °F /  15.5 °C 29.83in /  1010hPa West 1.0mph /  1.6km/h 3.0mph /  4.8km/h 95% 0.00in /  0mm
04:54 61.3 °F /  16.3 °C 59.9 °F /  15.5 °C 29.84in /  1010.4hPa WNW 1.0mph /  1.6km/h 2.0mph /  3.2km/h 95% 0.00in /  0mm
04:59 61.3 °F /  16.3 °C 59.9 °F /  15.5 °C 29.83in /  1010hPa WSW 1.0mph /  1.6km/h 2.0mph /  3.2km/h 95% 0.00in /  0mm
05:04 61.3 °F /  16.3 °C 59.9 °F /  15.5 °C 29.83in /  1010hPa West 1.0mph /  1.6km/h 3.0mph /  4.8km/h 95% 0.00in /  0mm
05:09 61.3 °F /  16.3 °C 59.9 °F /  15.5 °C 29.84in /  1010.4hPa WSW 1.0mph /  1.6km/h 3.0mph /  4.8km/h 95% 0.00in /  0mm
05:14 61.3 °F /  16.3 °C 59.9 °F /  15.5 °C 29.84in /  1010.4hPa West 2.0mph /  3.2km/h 2.0mph /  3.2km/h 95% 0.00in /  0mm
05:19 61.3 °F /  16.3 °C 59.9 °F /  15.5 °C 29.84in /  1010.4hPa Calm   1.0mph /  1.6km/h 95% 0.00in /  0mm
05:24 61.3 °F /  16.3 °C 59.9 °F /  15.5 °C 29.84in /  1010.4hPa Calm     95% 0.00in /  0mm
05:29 61.3 °F /  16.3 °C 59.9 °F /  15.5 °C 29.84in /  1010.4hPa Calm     95% 0.00in /  0mm
05:34 61.3 °F /  16.3 °C 59.9 °F /  15.5 °C 29.84in /  1010.4hPa Calm     95% 0.00in /  0mm
05:39 61.3 °F /  16.3 °C 59.9 °F /  15.5 °C 29.84in /  1010.4hPa Calm     95% 0.00in /  0mm
05:44 61.3 °F /  16.3 °C 59.9 °F /  15.5 °C 29.84in /  1010.4hPa Calm     95% 0.00in /  0mm
05:49 61.2 °F /  16.2 °C 59.8 °F /  15.4 °C 29.84in /  1010.4hPa Calm     95% 0.00in /  0mm
05:54 61.2 °F /  16.2 °C 59.8 °F /  15.4 °C 29.84in /  1010.4hPa Calm     95% 0.00in /  0mm
05:59 61.1 °F /  16.2 °C 59.7 °F /  15.4 °C 29.84in /  1010.4hPa Calm     95% 0.00in /  0mm
06:04 60.9 °F /  16.1 °C 59.5 °F /  15.3 °C 29.84in /  1010.4hPa Calm     95% 0.00in /  0mm
06:09 60.8 °F /  16 °C 59.4 °F /  15.2 °C 29.84in /  1010.4hPa Calm     95% 0.00in /  0mm
06:15 60.7 °F /  15.9 °C 59.3 °F /  15.2 °C 29.84in /  1010.4hPa Calm     95% 0.00in /  0mm
06:20 60.7 °F /  15.9 °C 59.3 °F /  15.2 °C 29.84in /  1010.4hPa Calm     95% 0.00in /  0mm
06:25 60.7 °F /  15.9 °C 59.3 °F /  15.2 °C 29.84in /  1010.4hPa Calm     95% 0.00in /  0mm
06:30 60.4 °F /  15.8 °C 59.0 °F /  15 °C 29.84in /  1010.4hPa Calm     95% 0.00in /  0mm
06:35 60.5 °F /  15.8 °C 59.1 °F /  15.1 °C 29.84in /  1010.4hPa Calm     95% 0.00in /  0mm
06:40 60.6 °F /  15.9 °C 59.2 °F /  15.1 °C 29.84in /  1010.4hPa Calm     95% 0.00in /  0mm
06:45 60.2 °F /  15.7 °C 58.8 °F /  14.9 °C 29.84in /  1010.4hPa Calm     95% 0.00in /  0mm
06:50 60.1 °F /  15.6 °C 58.7 °F /  14.8 °C 29.84in /  1010.4hPa Calm     95% 0.00in /  0mm
06:55 60.1 °F /  15.6 °C 58.7 °F /  14.8 °C 29.84in /  1010.4hPa Calm     95% 0.00in /  0mm
07:00 60.2 °F /  15.7 °C 58.8 °F /  14.9 °C 29.84in /  1010.4hPa Calm     95% 0.00in /  0mm
07:05 60.2 °F /  15.7 °C 58.8 °F /  14.9 °C 29.85in /  1010.7hPa Calm     95% 0.00in /  0mm
07:10 60.2 °F /  15.7 °C 58.8 °F /  14.9 °C 29.84in /  1010.4hPa Calm     95% 0.00in /  0mm
07:15 60.3 °F /  15.7 °C 58.9 °F /  14.9 °C 29.85in /  1010.7hPa Calm     95% 0.00in /  0mm
07:20 60.1 °F /  15.6 °C 58.7 °F /  14.8 °C 29.85in /  1010.7hPa South 1.0mph /  1.6km/h 1.0mph /  1.6km/h 95% 0.00in /  0mm
07:25 59.8 °F /  15.4 °C 58.7 °F /  14.8 °C 29.84in /  1010.4hPa SSE 1.0mph /  1.6km/h 2.0mph /  3.2km/h 96% 0.00in /  0mm
07:30 59.7 °F /  15.4 °C 58.6 °F /  14.8 °C 29.84in /  1010.4hPa SSW 1.0mph /  1.6km/h 1.0mph /  1.6km/h 96% 0.00in /  0mm
07:35 59.7 °F /  15.4 °C 58.3 °F /  14.6 °C 29.85in /  1010.7hPa SW 1.0mph /  1.6km/h 1.0mph /  1.6km/h 95% 0.00in /  0mm
07:40 59.6 °F /  15.3 °C 58.5 °F /  14.7 °C 29.85in /  1010.7hPa SW 1.0mph /  1.6km/h 2.0mph /  3.2km/h 96% 0.00in /  0mm
07:45 59.8 °F /  15.4 °C 58.7 °F /  14.8 °C 29.85in /  1010.7hPa WSW 1.0mph /  1.6km/h 2.0mph /  3.2km/h 96% 0.00in /  0mm
07:50 59.9 °F /  15.5 °C 58.8 °F /  14.9 °C 29.85in /  1010.7hPa SW 1.0mph /  1.6km/h 1.0mph /  1.6km/h 96% 0.00in /  0mm
07:55 59.7 °F /  15.4 °C 58.6 °F /  14.8 °C 29.85in /  1010.7hPa Calm     96% 0.00in /  0mm
08:00 59.7 °F /  15.4 °C 58.6 °F /  14.8 °C 29.85in /  1010.7hPa SW 1.0mph /  1.6km/h 1.0mph /  1.6km/h 96% 0.00in /  0mm
08:05 59.9 °F /  15.5 °C 58.5 °F /  14.7 °C 29.85in /  1010.7hPa SW 1.0mph /  1.6km/h 1.0mph /  1.6km/h 95% 0.00in /  0mm
08:10 60.0 °F /  15.6 °C 58.9 °F /  14.9 °C 29.85in /  1010.7hPa Calm   1.0mph /  1.6km/h 96% 0.00in /  0mm
08:15 60.2 °F /  15.7 °C 59.1 °F /  15.1 °C 29.86in /  1011.1hPa SW 1.0mph /  1.6km/h 1.0mph /  1.6km/h 96% 0.00in /  0mm
08:20 60.4 °F /  15.8 °C 59.0 °F /  15 °C 29.86in /  1011.1hPa WSW 2.0mph /  3.2km/h 2.0mph /  3.2km/h 95% 0.00in /  0mm
08:25 60.4 °F /  15.8 °C 59.0 °F /  15 °C 29.86in /  1011.1hPa WSW 2.0mph /  3.2km/h 2.0mph /  3.2km/h 95% 0.00in /  0mm
08:30 60.5 °F /  15.8 °C 59.1 °F /  15.1 °C 29.86in /  1011.1hPa WSW 2.0mph /  3.2km/h 3.0mph /  4.8km/h 95% 0.00in /  0mm
08:35 60.5 °F /  15.8 °C 59.4 °F /  15.2 °C 29.86in /  1011.1hPa WSW 2.0mph /  3.2km/h 2.0mph /  3.2km/h 96% 0.00in /  0mm
08:40 60.5 °F /  15.8 °C 59.4 °F /  15.2 °C 29.86in /  1011.1hPa SSW 1.0mph /  1.6km/h 3.0mph /  4.8km/h 96% 0.00in /  0mm
08:45 60.6 °F /  15.9 °C 59.2 °F /  15.1 °C 29.86in /  1011.1hPa SW 1.0mph /  1.6km/h 3.0mph /  4.8km/h 95% 0.00in /  0mm
08:50 60.8 °F /  16 °C 59.4 °F /  15.2 °C 29.86in /  1011.1hPa SW 3.0mph /  4.8km/h 3.0mph /  4.8km/h 95% 0.00in /  0mm
08:55 60.8 °F /  16 °C 59.4 °F /  15.2 °C 29.86in /  1011.1hPa WSW 1.0mph /  1.6km/h 2.0mph /  3.2km/h 95% 0.00in /  0mm
09:00 60.8 °F /  16 °C 59.4 °F /  15.2 °C 29.86in /  1011.1hPa SW 3.0mph /  4.8km/h 3.0mph /  4.8km/h 95% 0.00in /  0mm
09:05 60.9 °F /  16.1 °C 59.5 °F /  15.3 °C 29.86in /  1011.1hPa WSW 3.0mph /  4.8km/h 4.0mph /  6.4km/h 95% 0.00in /  0mm
09:10 60.9 °F /  16.1 °C 59.5 °F /  15.3 °C 29.86in /  1011.1hPa West 2.0mph /  3.2km/h 3.0mph /  4.8km/h 95% 0.00in /  0mm
09:15 61.2 °F /  16.2 °C 59.8 °F /  15.4 °C 29.86in /  1011.1hPa WSW 2.0mph /  3.2km/h 3.0mph /  4.8km/h 95% 0.00in /  0mm
09:21 61.3 °F /  16.3 °C 59.9 °F /  15.5 °C 29.86in /  1011.1hPa West 2.0mph /  3.2km/h 4.0mph /  6.4km/h 95% 0.00in /  0mm
09:26 61.4 °F /  16.3 °C 60.0 °F /  15.6 °C 29.86in /  1011.1hPa West 1.0mph /  1.6km/h 4.0mph /  6.4km/h 95% 0.00in /  0mm
09:31 61.6 °F /  16.4 °C 60.2 °F /  15.7 °C 29.86in /  1011.1hPa West 2.0mph /  3.2km/h 2.0mph /  3.2km/h 95% 0.00in /  0mm
09:36 61.7 °F /  16.5 °C 60.3 °F /  15.7 °C 29.86in /  1011.1hPa WNW 2.0mph /  3.2km/h 3.0mph /  4.8km/h 95% 0.00in /  0mm
09:41 62.0 °F /  16.7 °C 60.6 °F /  15.9 °C 29.85in /  1010.7hPa Calm   1.0mph /  1.6km/h 95% 0.00in /  0mm
09:47 62.2 °F /  16.8 °C 60.8 °F /  16 °C 29.85in /  1010.7hPa WSW 2.0mph /  3.2km/h 3.0mph /  4.8km/h 95% 0.00in /  0mm
09:52 62.3 °F /  16.8 °C 60.8 °F /  16 °C 29.85in /  1010.7hPa WSW 1.0mph /  1.6km/h 2.0mph /  3.2km/h 95% 0.00in /  0mm
09:57 62.4 °F /  16.9 °C 61.0 °F /  16.1 °C 29.85in /  1010.7hPa WNW 3.0mph /  4.8km/h 3.0mph /  4.8km/h 95% 0.00in /  0mm
10:03 62.5 °F /  16.9 °C 61.0 °F /  16.1 °C 29.86in /  1011.1hPa WNW 1.0mph /  1.6km/h 4.0mph /  6.4km/h 95% 0.00in /  0mm
10:08 62.9 °F /  17.2 °C 61.5 °F /  16.4 °C 29.85in /  1010.7hPa WSW 1.0mph /  1.6km/h 2.0mph /  3.2km/h 95% 0.00in /  0mm
10:13 63.1 °F /  17.3 °C 61.7 °F /  16.5 °C 29.85in /  1010.7hPa WSW 1.0mph /  1.6km/h 3.0mph /  4.8km/h 95% 0.00in /  0mm
10:18 63.3 °F /  17.4 °C 61.8 °F /  16.6 °C 29.86in /  1011.1hPa WNW 2.0mph /  3.2km/h 3.0mph /  4.8km/h 95% 0.00in /  0mm
10:23 63.5 °F /  17.5 °C 62.0 °F /  16.7 °C 29.85in /  1010.7hPa WSW 3.0mph /  4.8km/h 3.0mph /  4.8km/h 95% 0.00in /  0mm
10:28 63.9 °F /  17.7 °C 62.4 °F /  16.9 °C 29.86in /  1011.1hPa West 1.0mph /  1.6km/h 4.0mph /  6.4km/h 95% 0.00in /  0mm
10:33 64.0 °F /  17.8 °C 62.5 °F /  16.9 °C 29.86in /  1011.1hPa West 2.0mph /  3.2km/h 4.0mph /  6.4km/h 95% 0.00in /  0mm
10:38 64.2 °F /  17.9 °C 62.7 °F /  17.1 °C 29.86in /  1011.1hPa SW 1.0mph /  1.6km/h 2.0mph /  3.2km/h 95% 0.00in /  0mm
10:43 64.4 °F /  18 °C 62.9 °F /  17.2 °C 29.86in /  1011.1hPa West 1.0mph /  1.6km/h 3.0mph /  4.8km/h 95% 0.00in /  0mm
10:48 64.9 °F /  18.3 °C 63.4 °F /  17.4 °C 29.85in /  1010.7hPa WSW 4.0mph /  6.4km/h 4.0mph /  6.4km/h 95% 0.00in /  0mm
10:53 64.8 °F /  18.2 °C 63.3 °F /  17.4 °C 29.85in /  1010.7hPa West 3.0mph /  4.8km/h 6.0mph /  9.7km/h 95% 0.00in /  0mm
10:59 65.0 °F /  18.3 °C 63.5 °F /  17.5 °C 29.86in /  1011.1hPa SW 4.0mph /  6.4km/h 4.0mph /  6.4km/h 95% 0.00in /  0mm
11:04 65.2 °F /  18.4 °C 63.7 °F /  17.6 °C 29.86in /  1011.1hPa West 3.0mph /  4.8km/h 4.0mph /  6.4km/h 95% 0.00in /  0mm
11:09 66.2 °F /  19 °C 64.7 °F /  18.2 °C 29.86in /  1011.1hPa SW 4.0mph /  6.4km/h 4.0mph /  6.4km/h 95% 0.00in /  0mm
11:14 66.1 °F /  18.9 °C 64.6 °F /  18.1 °C 29.86in /  1011.1hPa SSE 2.0mph /  3.2km/h 5.0mph /  8km/h 95% 0.00in /  0mm
11:19 66.5 °F /  19.2 °C 65.0 °F /  18.3 °C 29.86in /  1011.1hPa West 3.0mph /  4.8km/h 4.0mph /  6.4km/h 95% 0.00in /  0mm
11:24 66.9 °F /  19.4 °C 65.1 °F /  18.4 °C 29.86in /  1011.1hPa Calm   3.0mph /  4.8km/h 94% 0.00in /  0mm
11:29 67.2 °F /  19.6 °C 65.4 °F /  18.6 °C 29.86in /  1011.1hPa SW 1.0mph /  1.6km/h 6.0mph /  9.7km/h 94% 0.00in /  0mm
11:34 67.7 °F /  19.8 °C 65.9 °F /  18.8 °C 29.86in /  1011.1hPa West 1.0mph /  1.6km/h 4.0mph /  6.4km/h 94% 0.00in /  0mm
11:39 68.5 °F /  20.3 °C 66.4 °F /  19.1 °C 29.86in /  1011.1hPa WSW 4.0mph /  6.4km/h 4.0mph /  6.4km/h 93% 0.00in /  0mm
11:44 68.9 °F /  20.5 °C 66.5 °F /  19.2 °C 29.86in /  1011.1hPa WSW 1.0mph /  1.6km/h 3.0mph /  4.8km/h 92% 0.00in /  0mm
11:49 69.4 °F /  20.8 °C 66.0 °F /  18.9 °C 29.86in /  1011.1hPa WSW 2.0mph /  3.2km/h 4.0mph /  6.4km/h 89% 0.00in /  0mm
11:54 70.4 °F /  21.3 °C 67.3 °F /  19.6 °C 29.86in /  1011.1hPa WSW 4.0mph /  6.4km/h 5.0mph /  8km/h 90% 0.00in /  0mm
11:59 70.7 °F /  21.5 °C 66.7 °F /  19.3 °C 29.86in /  1011.1hPa Calm   5.0mph /  8km/h 87% 0.00in /  0mm
12:04 71.3 °F /  21.8 °C 67.6 °F /  19.8 °C 29.86in /  1011.1hPa SSW 2.0mph /  3.2km/h 2.0mph /  3.2km/h 88% 0.00in /  0mm
12:09 72.0 °F /  22.2 °C 66.9 °F /  19.4 °C 29.86in /  1011.1hPa WSW 1.0mph /  1.6km/h 6.0mph /  9.7km/h 84% 0.00in /  0mm
12:14 72.4 °F /  22.4 °C 66.6 °F /  19.2 °C 29.85in /  1010.7hPa WSW 3.0mph /  4.8km/h 4.0mph /  6.4km/h 82% 0.00in /  0mm
12:19 72.4 °F /  22.4 °C 66.9 °F /  19.4 °C 29.86in /  1011.1hPa North 1.0mph /  1.6km/h 3.0mph /  4.8km/h 83% 0.00in /  0mm
12:24 72.7 °F /  22.6 °C 67.6 °F /  19.8 °C 29.86in /  1011.1hPa North 1.0mph /  1.6km/h 3.0mph /  4.8km/h 84% 0.00in /  0mm
12:29 72.5 °F /  22.5 °C 66.3 °F /  19.1 °C 29.86in /  1011.1hPa WSW 3.0mph /  4.8km/h 5.0mph /  8km/h 81% 0.00in /  0mm
12:34 72.9 °F /  22.7 °C 67.4 °F /  19.7 °C 29.86in /  1011.1hPa SSE 3.0mph /  4.8km/h 4.0mph /  6.4km/h 83% 0.00in /  0mm
12:40 73.2 °F /  22.9 °C 66.7 °F /  19.3 °C 29.85in /  1010.7hPa WSW 1.0mph /  1.6km/h 6.0mph /  9.7km/h 80% 0.00in /  0mm
12:45 73.4 °F /  23 °C 66.5 °F /  19.2 °C 29.85in /  1010.7hPa WNW 3.0mph /  4.8km/h 4.0mph /  6.4km/h 79% 0.00in /  0mm
12:50 73.4 °F /  23 °C 66.1 °F /  18.9 °C 29.85in /  1010.7hPa Calm   2.0mph /  3.2km/h 78% 0.00in /  0mm
12:55 73.8 °F /  23.2 °C 66.2 °F /  19 °C 29.85in /  1010.7hPa ESE 2.0mph /  3.2km/h 3.0mph /  4.8km/h 77% 0.00in /  0mm
13:00 74.6 °F /  23.7 °C 67.3 °F /  19.6 °C 29.85in /  1010.7hPa SSW 1.0mph /  1.6km/h 5.0mph /  8km/h 78% 0.00in /  0mm
13:05 74.8 °F /  23.8 °C 66.7 °F /  19.3 °C 29.85in /  1010.7hPa WNW 3.0mph /  4.8km/h 3.0mph /  4.8km/h 76% 0.00in /  0mm
13:10 75.4 °F /  24.1 °C 65.8 °F /  18.8 °C 29.85in /  1010.7hPa East 1.0mph /  1.6km/h 4.0mph /  6.4km/h 72% 0.00in /  0mm
13:15 75.0 °F /  23.9 °C 65.8 °F /  18.8 °C 29.84in /  1010.4hPa Calm   2.0mph /  3.2km/h 73% 0.00in /  0mm
13:20 75.3 °F /  24.1 °C 65.7 °F /  18.7 °C 29.84in /  1010.4hPa ENE 2.0mph /  3.2km/h 3.0mph /  4.8km/h 72% 0.00in /  0mm
13:25 75.7 °F /  24.3 °C 65.2 °F /  18.4 °C 29.85in /  1010.7hPa South 1.0mph /  1.6km/h 2.0mph /  3.2km/h 70% 0.00in /  0mm
13:30 76.6 °F /  24.8 °C 66.5 °F /  19.2 °C 29.84in /  1010.4hPa SE 4.0mph /  6.4km/h 5.0mph /  8km/h 71% 0.00in /  0mm
13:35 77.0 °F /  25 °C 66.5 °F /  19.2 °C 29.84in /  1010.4hPa SSW 3.0mph /  4.8km/h 6.0mph /  9.7km/h 70% 0.00in /  0mm
13:40 77.4 °F /  25.2 °C 66.0 °F /  18.9 °C 29.84in /  1010.4hPa SSW 3.0mph /  4.8km/h 5.0mph /  8km/h 68% 0.00in /  0mm
13:45 76.7 °F /  24.8 °C 64.5 °F /  18.1 °C 29.84in /  1010.4hPa Calm   6.0mph /  9.7km/h 66% 0.00in /  0mm
13:50 76.9 °F /  24.9 °C 66.4 °F /  19.1 °C 29.84in /  1010.4hPa SE 5.0mph /  8km/h 7.0mph /  11.3km/h 70% 0.00in /  0mm
13:55 76.2 °F /  24.6 °C 65.7 °F /  18.7 °C 29.83in /  1010hPa SSW 5.0mph /  8km/h 7.0mph /  11.3km/h 70% 0.00in /  0mm
14:00 75.7 °F /  24.3 °C 64.8 °F /  18.2 °C 29.83in /  1010hPa ESE 3.0mph /  4.8km/h 3.0mph /  4.8km/h 69% 0.00in /  0mm
14:05 74.8 °F /  23.8 °C 64.8 °F /  18.2 °C 29.83in /  1010hPa SE 3.0mph /  4.8km/h 6.0mph /  9.7km/h 71% 0.00in /  0mm
14:10 74.2 °F /  23.4 °C 66.2 °F /  19 °C 29.82in /  1009.7hPa SE 3.0mph /  4.8km/h 6.0mph /  9.7km/h 76% 0.00in /  0mm
14:15 73.9 °F /  23.3 °C 65.5 °F /  18.6 °C 29.82in /  1009.7hPa South 1.0mph /  1.6km/h 4.0mph /  6.4km/h 75% 0.00in /  0mm
14:20 74.0 °F /  23.3 °C 66.0 °F /  18.9 °C 29.82in /  1009.7hPa SW 2.0mph /  3.2km/h 2.0mph /  3.2km/h 76% 0.00in /  0mm
14:25 74.0 °F /  23.3 °C 66.0 °F /  18.9 °C 29.82in /  1009.7hPa SSW 5.0mph /  8km/h 5.0mph /  8km/h 76% 0.00in /  0mm
14:30 74.0 °F /  23.3 °C 66.0 °F /  18.9 °C 29.81in /  1009.4hPa SSW 4.0mph /  6.4km/h 6.0mph /  9.7km/h 76% 0.00in /  0mm
14:35 74.2 °F /  23.4 °C 66.2 °F /  19 °C 29.81in /  1009.4hPa SSE 6.0mph /  9.7km/h 6.0mph /  9.7km/h 76% 0.00in /  0mm
14:40 74.3 °F /  23.5 °C 66.2 °F /  19 °C 29.81in /  1009.4hPa SSE 6.0mph /  9.7km/h 7.0mph /  11.3km/h 76% 0.00in /  0mm
14:45 74.3 °F /  23.5 °C 66.6 °F /  19.2 °C 29.81in /  1009.4hPa South 5.0mph /  8km/h 7.0mph /  11.3km/h 77% 0.00in /  0mm
14:46 74.2 °F /  23.4 °C 65.8 °F /  18.8 °C 29.80in /  1009hPa SSW 6.0mph /  9.7km/h 8.0mph /  12.9km/h 75% 0.00in /  0mm
14:51 74.2 °F /  23.4 °C 65.4 °F /  18.6 °C 29.81in /  1009.4hPa SW 6.0mph /  9.7km/h 6.0mph /  9.7km/h 74% 0.00in /  0mm
14:56 74.4 °F /  23.6 °C 66.7 °F /  19.3 °C 29.80in /  1009hPa SSW 7.0mph /  11.3km/h 7.0mph /  11.3km/h 77% 0.00in /  0mm
15:01 74.7 °F /  23.7 °C 66.3 °F /  19.1 °C 29.80in /  1009hPa SSE 4.0mph /  6.4km/h 7.0mph /  11.3km/h 75% 0.00in /  0mm
15:06 74.5 °F /  23.6 °C 66.1 °F /  18.9 °C 29.80in /  1009hPa SE 9.0mph /  14.5km/h 11.0mph /  17.7km/h 75% 0.00in /  0mm
15:11 75.0 °F /  23.9 °C 65.8 °F /  18.8 °C 29.79in /  1008.7hPa SSW 7.0mph /  11.3km/h 13.0mph /  20.9km/h 73% 0.00in /  0mm
15:17 75.5 °F /  24.2 °C 66.6 °F /  19.2 °C 29.78in /  1008.4hPa SSW 6.0mph /  9.7km/h 10.0mph /  16.1km/h 74% 0.00in /  0mm
15:22 75.9 °F /  24.4 °C 66.2 °F /  19 °C 29.78in /  1008.4hPa South 9.0mph /  14.5km/h 11.0mph /  17.7km/h 72% 0.00in /  0mm
15:27 76.3 °F /  24.6 °C 66.2 °F /  19 °C 29.78in /  1008.4hPa South 9.0mph /  14.5km/h 13.0mph /  20.9km/h 71% 0.00in /  0mm
15:32 76.6 °F /  24.8 °C 67.7 °F /  19.8 °C 29.79in /  1008.7hPa SW 4.0mph /  6.4km/h 14.0mph /  22.5km/h 74% 0.00in /  0mm
15:37 76.8 °F /  24.9 °C 67.1 °F /  19.5 °C 29.78in /  1008.4hPa WSW 6.0mph /  9.7km/h 11.0mph /  17.7km/h 72% 0.00in /  0mm
15:38 76.9 °F /  24.9 °C 67.2 °F /  19.6 °C 29.78in /  1008.4hPa SSE 4.0mph /  6.4km/h 11.0mph /  17.7km/h 72% 0.00in /  0mm
15:43 77.0 °F /  25 °C 67.3 °F /  19.6 °C 29.78in /  1008.4hPa SSE 6.0mph /  9.7km/h 8.0mph /  12.9km/h 72% 0.00in /  0mm
15:48 77.0 °F /  25 °C 67.3 °F /  19.6 °C 29.78in /  1008.4hPa ESE 9.0mph /  14.5km/h 9.0mph /  14.5km/h 72% 0.00in /  0mm
15:53 77.1 °F /  25.1 °C 67.0 °F /  19.4 °C 29.78in /  1008.4hPa SSE 5.0mph /  8km/h 10.0mph /  16.1km/h 71% 0.00in /  0mm
15:54 77.1 °F /  25.1 °C 66.6 °F /  19.2 °C 29.77in /  1008hPa SSW 7.0mph /  11.3km/h 11.0mph /  17.7km/h 70% 0.00in /  0mm
15:59 77.2 °F /  25.1 °C 67.5 °F /  19.7 °C 29.77in /  1008hPa SSE 10.0mph /  16.1km/h 11.0mph /  17.7km/h 72% 0.00in /  0mm
16:00 77.2 °F /  25.1 °C 67.1 °F /  19.5 °C 29.77in /  1008hPa SE 9.0mph /  14.5km/h 11.0mph /  17.7km/h 71% 0.00in /  0mm
16:05 77.3 °F /  25.2 °C 67.2 °F /  19.6 °C 29.76in /  1007.7hPa SSE 12.0mph /  19.3km/h 12.0mph /  19.3km/h 71% 0.00in /  0mm
16:10 77.4 °F /  25.2 °C 67.3 °F /  19.6 °C 29.76in /  1007.7hPa SSE 11.0mph /  17.7km/h 13.0mph /  20.9km/h 71% 0.00in /  0mm
16:15 76.9 °F /  24.9 °C 66.8 °F /  19.3 °C 29.75in /  1007.3hPa SSW 5.0mph /  8km/h 9.0mph /  14.5km/h 71% 0.00in /  0mm
16:20 76.1 °F /  24.5 °C 66.4 °F /  19.1 °C 29.75in /  1007.3hPa SSE 4.0mph /  6.4km/h 12.0mph /  19.3km/h 72% 0.00in /  0mm
16:25 75.5 °F /  24.2 °C 65.8 °F /  18.8 °C 29.76in /  1007.7hPa SSE 5.0mph /  8km/h 9.0mph /  14.5km/h 72% 0.00in /  0mm
16:30 75.0 °F /  23.9 °C 65.8 °F /  18.8 °C 29.76in /  1007.7hPa SSE 4.0mph /  6.4km/h 6.0mph /  9.7km/h 73% 0.00in /  0mm
16:35 74.8 °F /  23.8 °C 66.3 °F /  19.1 °C 29.76in /  1007.7hPa South 6.0mph /  9.7km/h 7.0mph /  11.3km/h 75% 0.00in /  0mm
16:40 74.6 °F /  23.7 °C 66.2 °F /  19 °C 29.75in /  1007.3hPa SE 3.0mph /  4.8km/h 7.0mph /  11.3km/h 75% 0.00in /  0mm
16:41 74.6 °F /  23.7 °C 66.2 °F /  19 °C 29.75in /  1007.3hPa SSW 3.0mph /  4.8km/h 7.0mph /  11.3km/h 75% 0.00in /  0mm
16:46 74.7 °F /  23.7 °C 65.9 °F /  18.8 °C 29.75in /  1007.3hPa Calm   5.0mph /  8km/h 74% 0.00in /  0mm
16:51 75.0 °F /  23.9 °C 66.2 °F /  19 °C 29.76in /  1007.7hPa NNW 1.0mph /  1.6km/h 4.0mph /  6.4km/h 74% 0.00in /  0mm
16:56 75.5 °F /  24.2 °C 67.4 °F /  19.7 °C 29.77in /  1008hPa NNE 3.0mph /  4.8km/h 6.0mph /  9.7km/h 76% 0.00in /  0mm
17:01 75.5 °F /  24.2 °C 67.0 °F /  19.4 °C 29.79in /  1008.7hPa NE 8.0mph /  12.9km/h 13.0mph /  20.9km/h 75% 0.00in /  0mm
17:06 71.3 °F /  21.8 °C 57.6 °F /  14.2 °C 29.78in /  1008.4hPa NE 15.0mph /  24.1km/h 18.0mph /  29km/h 62% 0.00in /  0mm
17:11 68.3 °F /  20.2 °C 56.1 °F /  13.4 °C 29.79in /  1008.7hPa NE 7.0mph /  11.3km/h 14.0mph /  22.5km/h 65% 0.00in /  0mm
17:16 67.4 °F /  19.7 °C 54.4 °F /  12.4 °C 29.78in /  1008.4hPa ENE 6.0mph /  9.7km/h 8.0mph /  12.9km/h 63% 0.00in /  0mm
17:21 67.7 °F /  19.8 °C 55.1 °F /  12.8 °C 29.78in /  1008.4hPa NE 2.0mph /  3.2km/h 5.0mph /  8km/h 64% 0.00in /  0mm
17:26 67.7 °F /  19.8 °C 56.0 °F /  13.3 °C 29.78in /  1008.4hPa NE 4.0mph /  6.4km/h 9.0mph /  14.5km/h 66% 0.00in /  0mm
17:31 68.0 °F /  20 °C 57.1 °F /  13.9 °C 29.78in /  1008.4hPa NE 5.0mph /  8km/h 13.0mph /  20.9km/h 68% 0.00in /  0mm
17:36 67.7 °F /  19.8 °C 58.4 °F /  14.7 °C 29.78in /  1008.4hPa ENE 11.0mph /  17.7km/h 11.0mph /  17.7km/h 72% 0.00in /  0mm
17:41 67.7 °F /  19.8 °C 58.4 °F /  14.7 °C 29.79in /  1008.7hPa East 7.0mph /  11.3km/h 12.0mph /  19.3km/h 72% 0.00in /  0mm
17:46 67.2 °F /  19.6 °C 58.3 °F /  14.6 °C 29.79in /  1008.7hPa NE 5.0mph /  8km/h 13.0mph /  20.9km/h 73% 0.00in /  0mm
17:51 66.9 °F /  19.4 °C 58.0 °F /  14.4 °C 29.79in /  1008.7hPa NE 6.0mph /  9.7km/h 11.0mph /  17.7km/h 73% 0.00in /  0mm
17:56 66.4 °F /  19.1 °C 58.6 °F /  14.8 °C 29.79in /  1008.7hPa ENE 6.0mph /  9.7km/h 11.0mph /  17.7km/h 76% 0.00in /  0mm
18:01 65.8 °F /  18.8 °C 59.5 °F /  15.3 °C 29.80in /  1009hPa ENE 7.0mph /  11.3km/h 9.0mph /  14.5km/h 80% 0.00in /  0mm
18:06 65.4 °F /  18.6 °C 59.8 °F /  15.4 °C 29.80in /  1009hPa ENE 5.0mph /  8km/h 6.0mph /  9.7km/h 82% 0.00in /  0mm
18:11 65.2 °F /  18.4 °C 59.9 °F /  15.5 °C 29.80in /  1009hPa NNE 3.0mph /  4.8km/h 7.0mph /  11.3km/h 83% 0.00in /  0mm
18:16 65.1 °F /  18.4 °C 59.8 °F /  15.4 °C 29.80in /  1009hPa East 4.0mph /  6.4km/h 7.0mph /  11.3km/h 83% 0.00in /  0mm
18:21 65.1 °F /  18.4 °C 59.8 °F /  15.4 °C 29.80in /  1009hPa East 9.0mph /  14.5km/h 11.0mph /  17.7km/h 83% 0.00in /  0mm
18:26 65.1 °F /  18.4 °C 59.8 °F /  15.4 °C 29.80in /  1009hPa SE 9.0mph /  14.5km/h 13.0mph /  20.9km/h 83% 0.00in /  0mm
18:31 65.4 °F /  18.6 °C 60.5 °F /  15.8 °C 29.79in /  1008.7hPa ESE 6.0mph /  9.7km/h 11.0mph /  17.7km/h 84% 0.00in /  0mm
18:36 65.5 °F /  18.6 °C 60.9 °F /  16.1 °C 29.80in /  1009hPa SE 5.0mph /  8km/h 9.0mph /  14.5km/h 85% 0.00in /  0mm
18:41 65.6 °F /  18.7 °C 61.0 °F /  16.1 °C 29.79in /  1008.7hPa ESE 2.0mph /  3.2km/h 4.0mph /  6.4km/h 85% 0.00in /  0mm
18:46 65.5 °F /  18.6 °C 60.9 °F /  16.1 °C 29.80in /  1009hPa SE 4.0mph /  6.4km/h 6.0mph /  9.7km/h 85% 0.00in /  0mm
18:51 65.5 °F /  18.6 °C 60.9 °F /  16.1 °C 29.80in /  1009hPa ESE 3.0mph /  4.8km/h 7.0mph /  11.3km/h 85% 0.00in /  0mm
18:56 65.5 °F /  18.6 °C 60.9 °F /  16.1 °C 29.80in /  1009hPa SSE 5.0mph /  8km/h 8.0mph /  12.9km/h 85% 0.00in /  0mm
19:02 65.5 °F /  18.6 °C 60.5 °F /  15.8 °C 29.80in /  1009hPa SE 4.0mph /  6.4km/h 8.0mph /  12.9km/h 84% 0.00in /  0mm
19:07 65.6 °F /  18.7 °C 60.0 °F /  15.6 °C 29.80in /  1009hPa SE 4.0mph /  6.4km/h 5.0mph /  8km/h 82% 0.00in /  0mm
19:12 65.6 °F /  18.7 °C 59.3 °F /  15.2 °C 29.80in /  1009hPa SSE 2.0mph /  3.2km/h 4.0mph /  6.4km/h 80% 0.00in /  0mm
19:17 65.6 °F /  18.7 °C 58.6 °F /  14.8 °C 29.80in /  1009hPa Calm   3.0mph /  4.8km/h 78% 0.00in /  0mm
19:22 65.6 °F /  18.7 °C 58.6 °F /  14.8 °C 29.80in /  1009hPa Calm   2.0mph /  3.2km/h 78% 0.00in /  0mm
19:27 65.6 °F /  18.7 °C 58.6 °F /  14.8 °C 29.80in /  1009hPa Calm   1.0mph /  1.6km/h 78% 0.00in /  0mm
19:32 65.5 °F /  18.6 °C 58.5 °F /  14.7 °C 29.80in /  1009hPa SSE 2.0mph /  3.2km/h 2.0mph /  3.2km/h 78% 0.00in /  0mm
19:37 65.2 °F /  18.4 °C 58.5 °F /  14.7 °C 29.81in /  1009.4hPa SSE 2.0mph /  3.2km/h 5.0mph /  8km/h 79% 0.00in /  0mm
19:42 64.7 °F /  18.2 °C 58.4 °F /  14.7 °C 29.81in /  1009.4hPa SSE 3.0mph /  4.8km/h 3.0mph /  4.8km/h 80% 0.00in /  0mm
19:47 64.6 °F /  18.1 °C 58.3 °F /  14.6 °C 29.81in /  1009.4hPa SE 5.0mph /  8km/h 6.0mph /  9.7km/h 80% 0.00in /  0mm
19:49 64.6 °F /  18.1 °C 58.3 °F /  14.6 °C 29.81in /  1009.4hPa SE 5.0mph /  8km/h 7.0mph /  11.3km/h 80% 0.00in /  0mm
19:54 64.6 °F /  18.1 °C 58.7 °F /  14.8 °C 29.81in /  1009.4hPa ESE 4.0mph /  6.4km/h 7.0mph /  11.3km/h 81% 0.00in /  0mm
19:59 64.6 °F /  18.1 °C 59.0 °F /  15 °C 29.81in /  1009.4hPa SE 5.0mph /  8km/h 6.0mph /  9.7km/h 82% 0.00in /  0mm
20:04 64.5 °F /  18.1 °C 58.9 °F /  14.9 °C 29.80in /  1009hPa ESE 5.0mph /  8km/h 6.0mph /  9.7km/h 82% 0.00in /  0mm
20:09 64.4 °F /  18 °C 59.1 °F /  15.1 °C 29.81in /  1009.4hPa East 3.0mph /  4.8km/h 6.0mph /  9.7km/h 83% 0.00in /  0mm
20:14 64.1 °F /  17.8 °C 59.2 °F /  15.1 °C 29.81in /  1009.4hPa NE 3.0mph /  4.8km/h 5.0mph /  8km/h 84% 0.00in /  0mm
20:19 64.1 °F /  17.8 °C 59.2 °F /  15.1 °C 29.81in /  1009.4hPa SSE 1.0mph /  1.6km/h 3.0mph /  4.8km/h 84% 0.00in /  0mm
20:24 64.1 °F /  17.8 °C 59.5 °F /  15.3 °C 29.81in /  1009.4hPa ESE 3.0mph /  4.8km/h 4.0mph /  6.4km/h 85% 0.00in /  0mm
20:29 63.7 °F /  17.6 °C 59.1 °F /  15.1 °C 29.81in /  1009.4hPa ESE 3.0mph /  4.8km/h 5.0mph /  8km/h 85% 0.00in /  0mm
20:34 63.3 °F /  17.4 °C 59.0 °F /  15 °C 29.81in /  1009.4hPa ESE 2.0mph /  3.2km/h 3.0mph /  4.8km/h 86% 0.00in /  0mm
20:39 63.0 °F /  17.2 °C 58.8 °F /  14.9 °C 29.81in /  1009.4hPa Calm   2.0mph /  3.2km/h 86% 0.00in /  0mm
20:45 62.9 °F /  17.2 °C 59.0 °F /  15 °C 29.82in /  1009.7hPa SSW 4.0mph /  6.4km/h 5.0mph /  8km/h 87% 0.00in /  0mm
20:50 62.7 °F /  17.1 °C 59.1 °F /  15.1 °C 29.82in /  1009.7hPa SSW 2.0mph /  3.2km/h 3.0mph /  4.8km/h 88% 0.00in /  0mm
20:55 62.5 °F /  16.9 °C 58.9 °F /  14.9 °C 29.82in /  1009.7hPa East 1.0mph /  1.6km/h 2.0mph /  3.2km/h 88% 0.00in /  0mm
21:00 62.4 °F /  16.9 °C 59.1 °F /  15.1 °C 29.82in /  1009.7hPa Calm   1.0mph /  1.6km/h 89% 0.00in /  0mm
21:05 62.2 °F /  16.8 °C 58.9 °F /  14.9 °C 29.82in /  1009.7hPa SSE 1.0mph /  1.6km/h 2.0mph /  3.2km/h 89% 0.00in /  0mm
21:10 61.9 °F /  16.6 °C 58.9 °F /  14.9 °C 29.82in /  1009.7hPa SSE 1.0mph /  1.6km/h 2.0mph /  3.2km/h 90% 0.00in /  0mm
21:15 61.6 °F /  16.4 °C 58.6 °F /  14.8 °C 29.82in /  1009.7hPa Calm     90% 0.00in /  0mm
21:20 61.4 °F /  16.3 °C 58.8 °F /  14.9 °C 29.82in /  1009.7hPa SW 1.0mph /  1.6km/h 1.0mph /  1.6km/h 91% 0.00in /  0mm
21:25 61.2 °F /  16.2 °C 58.2 °F /  14.6 °C 29.82in /  1009.7hPa South 2.0mph /  3.2km/h 3.0mph /  4.8km/h 90% 0.00in /  0mm
21:30 61.2 °F /  16.2 °C 57.9 °F /  14.4 °C 29.82in /  1009.7hPa SSW 1.0mph /  1.6km/h 2.0mph /  3.2km/h 89% 0.00in /  0mm
21:35 61.1 °F /  16.2 °C 57.8 °F /  14.3 °C 29.83in /  1010hPa Calm   2.0mph /  3.2km/h 89% 0.00in /  0mm
21:40 61.0 °F /  16.1 °C 57.7 °F /  14.3 °C 29.83in /  1010hPa SW 2.0mph /  3.2km/h 3.0mph /  4.8km/h 89% 0.00in /  0mm
21:46 60.8 °F /  16 °C 57.8 °F /  14.3 °C 29.83in /  1010hPa SSW 1.0mph /  1.6km/h 2.0mph /  3.2km/h 90% 0.00in /  0mm
21:51 60.6 °F /  15.9 °C 57.7 °F /  14.3 °C 29.83in /  1010hPa SSE 1.0mph /  1.6km/h 3.0mph /  4.8km/h 90% 0.00in /  0mm
21:56 60.5 °F /  15.8 °C 57.6 °F /  14.2 °C 29.83in /  1010hPa SSE 1.0mph /  1.6km/h 2.0mph /  3.2km/h 90% 0.00in /  0mm
22:02 60.3 °F /  15.7 °C 57.7 °F /  14.3 °C 29.83in /  1010hPa SE 1.0mph /  1.6km/h 2.0mph /  3.2km/h 91% 0.00in /  0mm
22:07 60.1 °F /  15.6 °C 57.5 °F /  14.2 °C 29.83in /  1010hPa ESE 1.0mph /  1.6km/h 1.0mph /  1.6km/h 91% 0.00in /  0mm
22:12 60.0 °F /  15.6 °C 57.4 °F /  14.1 °C 29.84in /  1010.4hPa East 1.0mph /  1.6km/h 1.0mph /  1.6km/h 91% 0.00in /  0mm
22:17 60.0 °F /  15.6 °C 57.7 °F /  14.3 °C 29.84in /  1010.4hPa East 1.0mph /  1.6km/h 1.0mph /  1.6km/h 92% 0.00in /  0mm
22:22 59.8 °F /  15.4 °C 57.2 °F /  14 °C 29.84in /  1010.4hPa SE 1.0mph /  1.6km/h 4.0mph /  6.4km/h 91% 0.00in /  0mm
22:27 59.6 °F /  15.3 °C 57.3 °F /  14.1 °C 29.85in /  1010.7hPa Calm   1.0mph /  1.6km/h 92% 0.00in /  0mm
22:32 59.4 °F /  15.2 °C 57.1 °F /  13.9 °C 29.85in /  1010.7hPa Calm   1.0mph /  1.6km/h 92% 0.00in /  0mm
22:37 59.4 °F /  15.2 °C 57.1 °F /  13.9 °C 29.85in /  1010.7hPa SSE 2.0mph /  3.2km/h 2.0mph /  3.2km/h 92% 0.00in /  0mm
22:42 59.6 °F /  15.3 °C 57.6 °F /  14.2 °C 29.85in /  1010.7hPa SE 1.0mph /  1.6km/h 4.0mph /  6.4km/h 93% 0.00in /  0mm
22:47 59.7 °F /  15.4 °C 57.7 °F /  14.3 °C 29.85in /  1010.7hPa SSW 1.0mph /  1.6km/h 1.0mph /  1.6km/h 93% 0.00in /  0mm
22:53 59.8 °F /  15.4 °C 57.5 °F /  14.2 °C 29.85in /  1010.7hPa SSE 1.0mph /  1.6km/h 2.0mph /  3.2km/h 92% 0.00in /  0mm
22:58 59.7 °F /  15.4 °C 57.4 °F /  14.1 °C 29.85in /  1010.7hPa SW 2.0mph /  3.2km/h 2.0mph /  3.2km/h 92% 0.00in /  0mm
23:03 59.5 °F /  15.3 °C 57.2 °F /  14 °C 29.85in /  1010.7hPa SW 1.0mph /  1.6km/h 2.0mph /  3.2km/h 92% 0.00in /  0mm
23:08 59.4 °F /  15.2 °C 57.4 °F /  14.1 °C 29.85in /  1010.7hPa SSW 1.0mph /  1.6km/h 2.0mph /  3.2km/h 93% 0.00in /  0mm
23:13 59.3 °F /  15.2 °C 57.3 °F /  14.1 °C 29.85in /  1010.7hPa SSW 1.0mph /  1.6km/h 2.0mph /  3.2km/h 93% 0.00in /  0mm
23:18 59.4 °F /  15.2 °C 57.4 °F /  14.1 °C 29.85in /  1010.7hPa SSE 2.0mph /  3.2km/h 3.0mph /  4.8km/h 93% 0.00in /  0mm
23:23 59.4 °F /  15.2 °C 57.4 °F /  14.1 °C 29.85in /  1010.7hPa SSW 3.0mph /  4.8km/h 3.0mph /  4.8km/h 93% 0.00in /  0mm
23:28 59.6 °F /  15.3 °C 57.6 °F /  14.2 °C 29.85in /  1010.7hPa SW 3.0mph /  4.8km/h 5.0mph /  8km/h 93% 0.00in /  0mm
23:33 59.7 °F /  15.4 °C 57.7 °F /  14.3 °C 29.85in /  1010.7hPa South 1.0mph /  1.6km/h 3.0mph /  4.8km/h 93% 0.00in /  0mm
23:38 59.6 °F /  15.3 °C 57.6 °F /  14.2 °C 29.84in /  1010.4hPa Calm   2.0mph /  3.2km/h 93% 0.00in /  0mm
23:43 59.5 °F /  15.3 °C 57.5 °F /  14.2 °C 29.84in /  1010.4hPa Calm   2.0mph /  3.2km/h 93% 0.00in /  0mm
23:48 59.4 °F /  15.2 °C 57.4 °F /  14.1 °C 29.84in /  1010.4hPa SSW 1.0mph /  1.6km/h 2.0mph /  3.2km/h 93% 0.00in /  0mm
23:53 59.4 °F /  15.2 °C 57.4 °F /  14.1 °C 29.83in /  1010hPa Calm   1.0mph /  1.6km/h 93% 0.00in /  0mm
23:58 59.4 °F /  15.2 °C 57.4 °F /  14.1 °C 29.83in /  1010hPa SE 1.0mph /  1.6km/h 1.0mph /  1.6km/h 93% 0.00in /  0mm
Compliments of Weather Underground